aviador You're here:

YEML Decoded Metar

in
Report Time2017-12-11 05:00:00
UTC Time2017-12-11 05:48:01
Flight Rules vfr VFR
Wind110° at 10 kt
W.Decomp.*RWY 15: 7.7 kt HW 6.4 kt LCW
RWY 06: 6.4 kt HW 7.7 kt RCW
W.Rank110° ranks 9
Current wind is above 110° avg. (6.9)
Visibility9999 m
Phenomena:N/A
Clouds:Scattered 068 Hf
Scattered 100 Hf
Expected CloudBase > 6,800 ft AGL from Temp-Dew spread
CeilingNone
Temp32°C
Dew Point15°C (36% RH)
Heat Index31.6°C
AAT30.0°C
QNH1012 hPa
Raw Report
METAR YEML 110500Z AUTO 11010KT 9999 // SCT068 SCT100 32/15 Q1012=

Extra information for YEML:More info

Social comments